Impacts TAF Board
For situational awareness. Not to be used for flight planning purposes.
IDs:

KFLL - Ft Lauderdale-Hollyw, FL, US

Issued at 1454 UTC 16 Feb 2019
Updated at 1550 UTC 16 Feb 2019
Potential Impact None Slight Moderate High
Time<<17/04Z 17/05Z 17/06Z 17/07Z 17/08Z 17/09Z 17/10Z 17/11Z 17/12Z 17/13Z 17/14Z 17/15Z 17/16Z>>
Type PRVL PRVL PRVL PRVL PRVL PRVL PRVL PRVL PRVL PRVL PRVL PRVL PRVL
VIS >6 >6 >6 >6 >6 >6 >6 >6 >6 >6 >6 >6 >6
CIG -- -- -- -- -- -- -- -- -- -- -- -- --
Cover FEW FEW FEW FEW FEW FEW FEW FEW FEW FEW FEW SCT SCT
FltCat VFR VFR VFR VFR VFR VFR VFR VFR VFR VFR VFR VFR VFR
WX -- -- -- -- -- -- -- -- -- -- -- -- --
WDir VRB VRB VRB VRB VRB VRB VRB VRB VRB VRB VRB 160 160
WSpd 3 3 3 3 3 3 3 3 3 3 3 8 8
WGst -- -- -- -- -- -- -- -- -- -- -- -- --
Raw TAF
KFLL 161454Z 1615/1718 VRB03KT P6SM BKN050 BKN250
  FM161600 23010KT P6SM SCT030
  FM170100 VRB03KT P6SM FEW030
  FM171500 16008KT P6SM SCT025 SCT050


METAR Board
Radar Display
Forecast Discussion
For situational awareness. Not to be used for flight planning purposes.